sensor_id;sensor_type;location;lat;lon;timestamp;temperature;humidity
70271;SHT31;57680;54.292;18.598;2022-10-16T00:02:18;11.70;99.95
70271;SHT31;57680;54.292;18.598;2022-10-16T00:04:44;11.78;99.82
70271;SHT31;57680;54.292;18.598;2022-10-16T00:07:09;11.85;99.72
70271;SHT31;57680;54.292;18.598;2022-10-16T00:09:35;11.91;99.96
70271;SHT31;57680;54.292;18.598;2022-10-16T00:12:00;12.02;99.89
70271;SHT31;57680;54.292;18.598;2022-10-16T00:14:26;12.09;99.82
70271;SHT31;57680;54.292;18.598;2022-10-16T00:16:52;12.18;99.64
70271;SHT31;57680;54.292;18.598;2022-10-16T00:19:17;12.18;99.49
70271;SHT31;57680;54.292;18.598;2022-10-16T00:21:43;12.25;99.46
70271;SHT31;57680;54.292;18.598;2022-10-16T00:24:09;12.25;99.45
70271;SHT31;57680;54.292;18.598;2022-10-16T00:26:36;12.29;99.35
70271;SHT31;57680;54.292;18.598;2022-10-16T00:29:03;12.33;99.43
70271;SHT31;57680;54.292;18.598;2022-10-16T00:31:29;12.39;99.41
70271;SHT31;57680;54.292;18.598;2022-10-16T00:33:55;12.40;99.24
70271;SHT31;57680;54.292;18.598;2022-10-16T00:36:24;12.47;99.41
70271;SHT31;57680;54.292;18.598;2022-10-16T00:38:54;12.52;99.26
70271;SHT31;57680;54.292;18.598;2022-10-16T00:41:21;12.53;99.25
70271;SHT31;57680;54.292;18.598;2022-10-16T00:43:47;12.57;99.15
70271;SHT31;57680;54.292;18.598;2022-10-16T00:46:20;12.59;99.11
70271;SHT31;57680;54.292;18.598;2022-10-16T00:49:08;12.64;99.17
70271;SHT31;57680;54.292;18.598;2022-10-16T00:51:39;12.70;99.23
70271;SHT31;57680;54.292;18.598;2022-10-16T00:54:13;12.72;98.98
70271;SHT31;57680;54.292;18.598;2022-10-16T00:56:39;12.74;98.89
70271;SHT31;57680;54.292;18.598;2022-10-16T00:59:10;12.73;98.76
70271;SHT31;57680;54.292;18.598;2022-10-16T01:01:37;12.74;98.98
70271;SHT31;57680;54.292;18.598;2022-10-16T01:04:02;12.77;99.25
70271;SHT31;57680;54.292;18.598;2022-10-16T01:11:44;12.93;98.98
70271;SHT31;57680;54.292;18.598;2022-10-16T01:14:40;12.98;98.89
70271;SHT31;57680;54.292;18.598;2022-10-16T01:17:22;12.98;98.90
70271;SHT31;57680;54.292;18.598;2022-10-16T01:22:39;13.03;98.99
70271;SHT31;57680;54.292;18.598;2022-10-16T01:25:11;13.05;98.93
70271;SHT31;57680;54.292;18.598;2022-10-16T01:27:40;13.10;98.93
70271;SHT31;57680;54.292;18.598;2022-10-16T01:30:14;13.08;98.92
70271;SHT31;57680;54.292;18.598;2022-10-16T01:32:53;13.14;98.92
70271;SHT31;57680;54.292;18.598;2022-10-16T01:35:36;13.15;98.86
70271;SHT31;57680;54.292;18.598;2022-10-16T01:38:12;13.22;98.74
70271;SHT31;57680;54.292;18.598;2022-10-16T01:40:42;13.22;98.74
70271;SHT31;57680;54.292;18.598;2022-10-16T01:43:14;13.25;98.68
70271;SHT31;57680;54.292;18.598;2022-10-16T01:45:41;13.29;98.50
70271;SHT31;57680;54.292;18.598;2022-10-16T01:48:12;13.29;98.49
70271;SHT31;57680;54.292;18.598;2022-10-16T01:50:41;13.34;98.35
70271;SHT31;57680;54.292;18.598;2022-10-16T01:53:12;13.34;98.31
70271;SHT31;57680;54.292;18.598;2022-10-16T01:55:41;13.36;98.32
70271;SHT31;57680;54.292;18.598;2022-10-16T01:58:11;13.38;98.24
70271;SHT31;57680;54.292;18.598;2022-10-16T02:00:40;13.43;98.03
70271;SHT31;57680;54.292;18.598;2022-10-16T02:03:06;13.52;97.85
70271;SHT31;57680;54.292;18.598;2022-10-16T02:05:46;13.56;97.53
70271;SHT31;57680;54.292;18.598;2022-10-16T02:08:12;13.56;97.30
70271;SHT31;57680;54.292;18.598;2022-10-16T02:10:38;13.59;97.06
70271;SHT31;57680;54.292;18.598;2022-10-16T02:13:14;13.53;96.91
70271;SHT31;57680;54.292;18.598;2022-10-16T02:15:41;13.51;96.75
70271;SHT31;57680;54.292;18.598;2022-10-16T02:18:07;13.45;96.76
70271;SHT31;57680;54.292;18.598;2022-10-16T02:20:39;13.35;96.69
70271;SHT31;57680;54.292;18.598;2022-10-16T02:23:08;13.26;96.74
70271;SHT31;57680;54.292;18.598;2022-10-16T02:25:40;13.21;96.68
70271;SHT31;57680;54.292;18.598;2022-10-16T02:28:19;13.15;96.87
70271;SHT31;57680;54.292;18.598;2022-10-16T02:30:59;13.10;97.01
70271;SHT31;57680;54.292;18.598;2022-10-16T02:33:27;13.04;97.00
70271;SHT31;57680;54.292;18.598;2022-10-16T02:35:55;13.01;97.10
70271;SHT31;57680;54.292;18.598;2022-10-16T02:38:21;12.98;97.28
70271;SHT31;57680;54.292;18.598;2022-10-16T02:40:48;12.97;97.40
70271;SHT31;57680;54.292;18.598;2022-10-16T02:43:14;12.94;97.42
70271;SHT31;57680;54.292;18.598;2022-10-16T02:45:39;12.91;97.46
70271;SHT31;57680;54.292;18.598;2022-10-16T02:48:05;12.87;97.53
70271;SHT31;57680;54.292;18.598;2022-10-16T02:50:31;12.88;97.57
70271;SHT31;57680;54.292;18.598;2022-10-16T02:52:57;12.88;97.85
70271;SHT31;57680;54.292;18.598;2022-10-16T02:55:22;12.83;97.73
70271;SHT31;57680;54.292;18.598;2022-10-16T02:57:48;12.83;97.92
70271;SHT31;57680;54.292;18.598;2022-10-16T03:00:15;12.83;98.01
70271;SHT31;57680;54.292;18.598;2022-10-16T03:02:41;12.85;98.10
70271;SHT31;57680;54.292;18.598;2022-10-16T03:05:07;12.83;98.14
70271;SHT31;57680;54.292;18.598;2022-10-16T03:07:33;12.85;98.08
70271;SHT31;57680;54.292;18.598;2022-10-16T03:09:58;12.84;98.08
70271;SHT31;57680;54.292;18.598;2022-10-16T03:12:28;12.85;98.17
70271;SHT31;57680;54.292;18.598;2022-10-16T03:14:57;12.84;98.25
70271;SHT31;57680;54.292;18.598;2022-10-16T03:17:24;12.88;98.23
70271;SHT31;57680;54.292;18.598;2022-10-16T03:19:49;12.91;98.36
70271;SHT31;57680;54.292;18.598;2022-10-16T03:22:15;12.95;98.30
70271;SHT31;57680;54.292;18.598;2022-10-16T03:24:40;12.98;98.32
70271;SHT31;57680;54.292;18.598;2022-10-16T03:27:06;13.00;98.30
70271;SHT31;57680;54.292;18.598;2022-10-16T03:29:32;13.04;98.35
70271;SHT31;57680;54.292;18.598;2022-10-16T03:31:58;13.08;98.35
70271;SHT31;57680;54.292;18.598;2022-10-16T03:34:24;13.12;98.30
70271;SHT31;57680;54.292;18.598;2022-10-16T03:36:50;13.18;98.23
70271;SHT31;57680;54.292;18.598;2022-10-16T03:39:15;13.18;98.20
70271;SHT31;57680;54.292;18.598;2022-10-16T03:41:41;13.15;98.07
70271;SHT31;57680;54.292;18.598;2022-10-16T03:44:06;13.19;98.07
70271;SHT31;57680;54.292;18.598;2022-10-16T03:46:32;13.19;97.99
70271;SHT31;57680;54.292;18.598;2022-10-16T03:48:58;13.22;98.04
70271;SHT31;57680;54.292;18.598;2022-10-16T03:51:23;13.19;98.08
70271;SHT31;57680;54.292;18.598;2022-10-16T03:53:48;13.18;98.06
70271;SHT31;57680;54.292;18.598;2022-10-16T03:56:14;13.19;98.13
70271;SHT31;57680;54.292;18.598;2022-10-16T03:58:40;13.19;98.11
70271;SHT31;57680;54.292;18.598;2022-10-16T04:03:39;13.24;98.08
70271;SHT31;57680;54.292;18.598;2022-10-16T04:06:05;13.24;98.05
70271;SHT31;57680;54.292;18.598;2022-10-16T04:08:31;13.28;98.02
70271;SHT31;57680;54.292;18.598;2022-10-16T04:10:59;13.29;98.01
70271;SHT31;57680;54.292;18.598;2022-10-16T04:13:24;13.28;97.97
70271;SHT31;57680;54.292;18.598;2022-10-16T04:15:50;13.29;97.92
70271;SHT31;57680;54.292;18.598;2022-10-16T04:18:16;13.31;97.80
70271;SHT31;57680;54.292;18.598;2022-10-16T04:20:41;13.32;97.79
70271;SHT31;57680;54.292;18.598;2022-10-16T04:23:07;13.32;97.84
70271;SHT31;57680;54.292;18.598;2022-10-16T04:25:32;13.32;97.74
70271;SHT31;57680;54.292;18.598;2022-10-16T04:27:58;13.31;97.84
70271;SHT31;57680;54.292;18.598;2022-10-16T04:30:23;13.29;97.79
70271;SHT31;57680;54.292;18.598;2022-10-16T04:32:50;13.31;97.77
70271;SHT31;57680;54.292;18.598;2022-10-16T04:35:17;13.32;97.73
70271;SHT31;57680;54.292;18.598;2022-10-16T04:37:43;13.28;97.72
70271;SHT31;57680;54.292;18.598;2022-10-16T04:40:09;13.32;97.80
70271;SHT31;57680;54.292;18.598;2022-10-16T04:42:35;13.29;97.82
70271;SHT31;57680;54.292;18.598;2022-10-16T04:45:00;13.31;97.80
70271;SHT31;57680;54.292;18.598;2022-10-16T04:47:26;13.29;97.80
70271;SHT31;57680;54.292;18.598;2022-10-16T04:49:52;13.28;97.80
70271;SHT31;57680;54.292;18.598;2022-10-16T04:52:17;13.29;97.82
70271;SHT31;57680;54.292;18.598;2022-10-16T04:54:44;13.31;97.75
70271;SHT31;57680;54.292;18.598;2022-10-16T04:57:11;13.31;97.68
70271;SHT31;57680;54.292;18.598;2022-10-16T04:59:36;13.25;97.80
70271;SHT31;57680;54.292;18.598;2022-10-16T05:02:02;13.29;97.85
70271;SHT31;57680;54.292;18.598;2022-10-16T05:04:28;13.29;97.87
70271;SHT31;57680;54.292;18.598;2022-10-16T05:06:53;13.32;97.81
70271;SHT31;57680;54.292;18.598;2022-10-16T05:09:19;13.34;97.79
70271;SHT31;57680;54.292;18.598;2022-10-16T05:11:44;13.34;97.76
70271;SHT31;57680;54.292;18.598;2022-10-16T05:14:10;13.32;97.73
70271;SHT31;57680;54.292;18.598;2022-10-16T05:16:35;13.36;97.67
70271;SHT31;57680;54.292;18.598;2022-10-16T05:19:01;13.36;97.64
70271;SHT31;57680;54.292;18.598;2022-10-16T05:21:26;13.35;97.57
70271;SHT31;57680;54.292;18.598;2022-10-16T05:23:53;13.39;97.50
70271;SHT31;57680;54.292;18.598;2022-10-16T05:26:19;13.39;97.45
70271;SHT31;57680;54.292;18.598;2022-10-16T05:28:45;13.36;97.45
70271;SHT31;57680;54.292;18.598;2022-10-16T05:31:11;13.38;97.39
70271;SHT31;57680;54.292;18.598;2022-10-16T05:33:37;13.39;97.38
70271;SHT31;57680;54.292;18.598;2022-10-16T05:36:04;13.41;97.32
70271;SHT31;57680;54.292;18.598;2022-10-16T05:38:31;13.39;97.33
70271;SHT31;57680;54.292;18.598;2022-10-16T05:40:56;13.39;97.27
70271;SHT31;57680;54.292;18.598;2022-10-16T05:43:23;13.42;97.21
70271;SHT31;57680;54.292;18.598;2022-10-16T05:45:56;13.42;97.20
70271;SHT31;57680;54.292;18.598;2022-10-16T05:48:23;13.42;97.14
70271;SHT31;57680;54.292;18.598;2022-10-16T05:50:56;13.43;97.02
70271;SHT31;57680;54.292;18.598;2022-10-16T05:53:22;13.43;96.87
70271;SHT31;57680;54.292;18.598;2022-10-16T05:55:54;13.48;96.82
70271;SHT31;57680;54.292;18.598;2022-10-16T05:58:21;13.48;96.67
70271;SHT31;57680;54.292;18.598;2022-10-16T06:00:55;13.45;96.74
70271;SHT31;57680;54.292;18.598;2022-10-16T06:03:21;13.46;96.74
70271;SHT31;57680;54.292;18.598;2022-10-16T06:05:47;13.46;96.73
70271;SHT31;57680;54.292;18.598;2022-10-16T06:08:12;13.52;96.68
70271;SHT31;57680;54.292;18.598;2022-10-16T06:10:38;13.51;96.68
70271;SHT31;57680;54.292;18.598;2022-10-16T06:13:03;13.52;96.59
70271;SHT31;57680;54.292;18.598;2022-10-16T06:15:29;13.52;96.49
70271;SHT31;57680;54.292;18.598;2022-10-16T06:17:55;13.55;96.39
70271;SHT31;57680;54.292;18.598;2022-10-16T06:20:20;13.53;96.23
70271;SHT31;57680;54.292;18.598;2022-10-16T06:22:46;13.55;96.13
70271;SHT31;57680;54.292;18.598;2022-10-16T06:25:12;13.55;96.08
70271;SHT31;57680;54.292;18.598;2022-10-16T06:27:40;13.56;96.10
70271;SHT31;57680;54.292;18.598;2022-10-16T06:30:06;13.58;95.98
70271;SHT31;57680;54.292;18.598;2022-10-16T06:32:32;13.56;95.90
70271;SHT31;57680;54.292;18.598;2022-10-16T06:34:58;13.58;96.00
70271;SHT31;57680;54.292;18.598;2022-10-16T06:37:23;13.53;95.98
70271;SHT31;57680;54.292;18.598;2022-10-16T06:39:50;13.56;96.17
70271;SHT31;57680;54.292;18.598;2022-10-16T06:42:18;13.63;96.29
70271;SHT31;57680;54.292;18.598;2022-10-16T06:44:44;13.63;96.18
70271;SHT31;57680;54.292;18.598;2022-10-16T06:47:10;13.72;96.18
70271;SHT31;57680;54.292;18.598;2022-10-16T06:49:36;13.73;96.15
70271;SHT31;57680;54.292;18.598;2022-10-16T06:52:02;13.80;96.06
70271;SHT31;57680;54.292;18.598;2022-10-16T06:54:28;13.84;95.93
70271;SHT31;57680;54.292;18.598;2022-10-16T06:56:53;13.90;95.70
70271;SHT31;57680;54.292;18.598;2022-10-16T06:59:20;13.99;95.66
70271;SHT31;57680;54.292;18.598;2022-10-16T07:01:46;13.99;95.63
70271;SHT31;57680;54.292;18.598;2022-10-16T07:04:12;14.06;95.80
70271;SHT31;57680;54.292;18.598;2022-10-16T07:06:38;14.12;95.41
70271;SHT31;57680;54.292;18.598;2022-10-16T07:09:06;14.14;95.18
70271;SHT31;57680;54.292;18.598;2022-10-16T07:11:32;14.18;95.13
70271;SHT31;57680;54.292;18.598;2022-10-16T07:13:58;14.21;95.14
70271;SHT31;57680;54.292;18.598;2022-10-16T07:16:27;14.27;95.24
70271;SHT31;57680;54.292;18.598;2022-10-16T07:18:57;14.35;95.34
70271;SHT31;57680;54.292;18.598;2022-10-16T07:21:26;14.35;95.19
70271;SHT31;57680;54.292;18.598;2022-10-16T07:23:57;14.40;94.96
70271;SHT31;57680;54.292;18.598;2022-10-16T07:26:24;14.44;95.10
70271;SHT31;57680;54.292;18.598;2022-10-16T07:28:50;14.46;94.93
70271;SHT31;57680;54.292;18.598;2022-10-16T07:31:18;14.45;94.61
70271;SHT31;57680;54.292;18.598;2022-10-16T07:33:45;14.48;94.72
70271;SHT31;57680;54.292;18.598;2022-10-16T07:36:12;14.46;94.63
70271;SHT31;57680;54.292;18.598;2022-10-16T07:38:38;14.44;94.53
70271;SHT31;57680;54.292;18.598;2022-10-16T07:41:09;14.44;94.63
70271;SHT31;57680;54.292;18.598;2022-10-16T07:43:35;14.46;94.71
70271;SHT31;57680;54.292;18.598;2022-10-16T07:46:02;14.45;94.83
70271;SHT31;57680;54.292;18.598;2022-10-16T07:48:30;14.45;94.51
70271;SHT31;57680;54.292;18.598;2022-10-16T07:51:00;14.46;94.65
70271;SHT31;57680;54.292;18.598;2022-10-16T07:53:26;14.54;94.59
70271;SHT31;57680;54.292;18.598;2022-10-16T07:55:57;14.58;94.55
70271;SHT31;57680;54.292;18.598;2022-10-16T07:58:23;14.58;94.34
70271;SHT31;57680;54.292;18.598;2022-10-16T08:00:49;14.64;94.22
70271;SHT31;57680;54.292;18.598;2022-10-16T08:03:14;14.65;94.18
70271;SHT31;57680;54.292;18.598;2022-10-16T08:05:40;14.65;94.11
70271;SHT31;57680;54.292;18.598;2022-10-16T08:08:06;14.64;94.24
70271;SHT31;57680;54.292;18.598;2022-10-16T08:10:31;14.62;93.78
70271;SHT31;57680;54.292;18.598;2022-10-16T08:12:57;14.62;93.79
70271;SHT31;57680;54.292;18.598;2022-10-16T08:15:23;14.64;93.76
70271;SHT31;57680;54.292;18.598;2022-10-16T08:18:00;14.60;93.88
70271;SHT31;57680;54.292;18.598;2022-10-16T08:20:27;14.64;93.96
70271;SHT31;57680;54.292;18.598;2022-10-16T08:22:53;14.69;93.51
70271;SHT31;57680;54.292;18.598;2022-10-16T08:25:20;14.72;93.92
70271;SHT31;57680;54.292;18.598;2022-10-16T08:27:46;14.75;93.84
70271;SHT31;57680;54.292;18.598;2022-10-16T08:30:13;14.79;93.68
70271;SHT31;57680;54.292;18.598;2022-10-16T08:32:39;14.75;93.36
70271;SHT31;57680;54.292;18.598;2022-10-16T08:35:06;14.78;93.51
70271;SHT31;57680;54.292;18.598;2022-10-16T08:37:32;14.79;93.13
70271;SHT31;57680;54.292;18.598;2022-10-16T08:39:58;14.81;93.27
70271;SHT31;57680;54.292;18.598;2022-10-16T08:47:26;14.75;93.22
70271;SHT31;57680;54.292;18.598;2022-10-16T08:49:58;14.75;93.31
70271;SHT31;57680;54.292;18.598;2022-10-16T08:52:32;14.79;93.47
70271;SHT31;57680;54.292;18.598;2022-10-16T08:54:59;14.83;93.30
70271;SHT31;57680;54.292;18.598;2022-10-16T08:57:25;14.82;93.10
70271;SHT31;57680;54.292;18.598;2022-10-16T08:59:59;14.82;93.10
70271;SHT31;57680;54.292;18.598;2022-10-16T09:10:26;15.18;93.40
70271;SHT31;57680;54.292;18.598;2022-10-16T09:13:24;15.30;92.89
70271;SHT31;57680;54.292;18.598;2022-10-16T09:16:07;15.42;92.72
70271;SHT31;57680;54.292;18.598;2022-10-16T09:21:43;15.44;92.27
70271;SHT31;57680;54.292;18.598;2022-10-16T09:24:17;15.39;91.53
70271;SHT31;57680;54.292;18.598;2022-10-16T09:26:45;15.40;91.79
70271;SHT31;57680;54.292;18.598;2022-10-16T09:29:12;15.34;91.71
70271;SHT31;57680;54.292;18.598;2022-10-16T09:31:38;15.36;91.91
70271;SHT31;57680;54.292;18.598;2022-10-16T09:34:05;15.37;91.94
70271;SHT31;57680;54.292;18.598;2022-10-16T09:36:39;15.36;91.94
70271;SHT31;57680;54.292;18.598;2022-10-16T09:39:09;15.37;91.97
70271;SHT31;57680;54.292;18.598;2022-10-16T09:41:40;15.39;92.15
70271;SHT31;57680;54.292;18.598;2022-10-16T09:44:29;15.42;91.89
70271;SHT31;57680;54.292;18.598;2022-10-16T09:47:16;15.43;91.79
70271;SHT31;57680;54.292;18.598;2022-10-16T09:50:00;15.44;91.70
70271;SHT31;57680;54.292;18.598;2022-10-16T09:52:30;15.49;91.70
70271;SHT31;57680;54.292;18.598;2022-10-16T09:55:02;15.49;91.39
70271;SHT31;57680;54.292;18.598;2022-10-16T09:57:28;15.51;91.45
70271;SHT31;57680;54.292;18.598;2022-10-16T09:59:56;15.53;91.09
70271;SHT31;57680;54.292;18.598;2022-10-16T10:02:35;15.57;91.16
70271;SHT31;57680;54.292;18.598;2022-10-16T10:05:01;15.55;90.92
70271;SHT31;57680;54.292;18.598;2022-10-16T10:07:42;15.57;91.14
70271;SHT31;57680;54.292;18.598;2022-10-16T10:10:27;15.58;91.13
70271;SHT31;57680;54.292;18.598;2022-10-16T10:12:54;15.64;91.28
70271;SHT31;57680;54.292;18.598;2022-10-16T10:15:21;15.57;91.23
70271;SHT31;57680;54.292;18.598;2022-10-16T10:17:52;15.65;91.06
70271;SHT31;57680;54.292;18.598;2022-10-16T10:20:32;15.61;91.13
70271;SHT31;57680;54.292;18.598;2022-10-16T10:23:00;15.60;91.50
70271;SHT31;57680;54.292;18.598;2022-10-16T10:25:42;15.61;91.21
70271;SHT31;57680;54.292;18.598;2022-10-16T10:36:27;15.82;91.15
70271;SHT31;57680;54.292;18.598;2022-10-16T10:39:01;15.91;91.48
70271;SHT31;57680;54.292;18.598;2022-10-16T11:00:31;16.00;89.94
70271;SHT31;57680;54.292;18.598;2022-10-16T11:03:27;16.02;90.29
70271;SHT31;57680;54.292;18.598;2022-10-16T11:06:04;15.95;89.91
70271;SHT31;57680;54.292;18.598;2022-10-16T11:08:35;16.11;90.17
70271;SHT31;57680;54.292;18.598;2022-10-16T11:11:50;16.30;90.41
70271;SHT31;57680;54.292;18.598;2022-10-16T11:17:19;16.66;89.01
70271;SHT31;57680;54.292;18.598;2022-10-16T11:20:19;16.76;88.34
70271;SHT31;57680;54.292;18.598;2022-10-16T11:22:56;16.76;87.78
70271;SHT31;57680;54.292;18.598;2022-10-16T11:25:29;16.76;88.22
70271;SHT31;57680;54.292;18.598;2022-10-16T11:30:57;16.95;87.12
70271;SHT31;57680;54.292;18.598;2022-10-16T11:41:32;17.08;86.14
70271;SHT31;57680;54.292;18.598;2022-10-16T11:47:11;17.08;85.40
70271;SHT31;57680;54.292;18.598;2022-10-16T11:49:39;17.10;85.44
70271;SHT31;57680;54.292;18.598;2022-10-16T11:52:13;17.07;85.65
70271;SHT31;57680;54.292;18.598;2022-10-16T11:54:55;17.01;85.32
70271;SHT31;57680;54.292;18.598;2022-10-16T11:57:24;16.97;85.62
70271;SHT31;57680;54.292;18.598;2022-10-16T12:00:20;16.97;85.27
70271;SHT31;57680;54.292;18.598;2022-10-16T12:08:23;17.46;84.82
70271;SHT31;57680;54.292;18.598;2022-10-16T12:10:50;17.63;83.27
70271;SHT31;57680;54.292;18.598;2022-10-16T12:13:34;17.71;82.31
70271;SHT31;57680;54.292;18.598;2022-10-16T12:16:20;17.79;82.53
70271;SHT31;57680;54.292;18.598;2022-10-16T12:18:47;17.89;81.65
70271;SHT31;57680;54.292;18.598;2022-10-16T12:21:14;17.96;81.13
70271;SHT31;57680;54.292;18.598;2022-10-16T12:26:24;18.13;80.79
70271;SHT31;57680;54.292;18.598;2022-10-16T12:28:50;18.20;80.48
70271;SHT31;57680;54.292;18.598;2022-10-16T12:31:17;18.23;79.98
70271;SHT31;57680;54.292;18.598;2022-10-16T12:34:01;18.33;79.09
70271;SHT31;57680;54.292;18.598;2022-10-16T12:36:32;18.33;79.37
70271;SHT31;57680;54.292;18.598;2022-10-16T12:38:59;18.26;79.17
70271;SHT31;57680;54.292;18.598;2022-10-16T12:41:28;18.21;79.57
70271;SHT31;57680;54.292;18.598;2022-10-16T12:43:55;18.12;78.37
70271;SHT31;57680;54.292;18.598;2022-10-16T12:46:35;18.02;77.99
70271;SHT31;57680;54.292;18.598;2022-10-16T12:51:42;18.17;78.00
70271;SHT31;57680;54.292;18.598;2022-10-16T12:54:17;18.27;77.41
70271;SHT31;57680;54.292;18.598;2022-10-16T12:59:47;18.37;77.67
70271;SHT31;57680;54.292;18.598;2022-10-16T13:16:08;18.78;72.81
70271;SHT31;57680;54.292;18.598;2022-10-16T13:22:03;18.60;73.33
70271;SHT31;57680;54.292;18.598;2022-10-16T13:24:40;18.44;73.53
70271;SHT31;57680;54.292;18.598;2022-10-16T13:30:21;18.02;74.48
70271;SHT31;57680;54.292;18.598;2022-10-16T13:32:50;17.93;75.02
70271;SHT31;57680;54.292;18.598;2022-10-16T13:35:25;17.82;75.33
70271;SHT31;57680;54.292;18.598;2022-10-16T13:37:50;17.72;75.95
70271;SHT31;57680;54.292;18.598;2022-10-16T13:40:23;17.68;76.35
70271;SHT31;57680;54.292;18.598;2022-10-16T13:42:51;17.62;75.86
70271;SHT31;57680;54.292;18.598;2022-10-16T13:45:19;17.53;76.22
70271;SHT31;57680;54.292;18.598;2022-10-16T13:47:45;17.51;76.29
70271;SHT31;57680;54.292;18.598;2022-10-16T13:50:13;17.49;76.96
70271;SHT31;57680;54.292;18.598;2022-10-16T13:52:39;17.48;76.97
70271;SHT31;57680;54.292;18.598;2022-10-16T13:55:11;17.46;77.57
70271;SHT31;57680;54.292;18.598;2022-10-16T13:57:36;17.48;77.42
70271;SHT31;57680;54.292;18.598;2022-10-16T14:00:02;17.41;77.60
70271;SHT31;57680;54.292;18.598;2022-10-16T14:02:37;17.41;77.65
70271;SHT31;57680;54.292;18.598;2022-10-16T14:05:08;17.39;78.15
70271;SHT31;57680;54.292;18.598;2022-10-16T14:07:36;17.34;78.62
70271;SHT31;57680;54.292;18.598;2022-10-16T14:10:06;17.31;78.90
70271;SHT31;57680;54.292;18.598;2022-10-16T14:12:33;17.34;78.87
70271;SHT31;57680;54.292;18.598;2022-10-16T14:15:00;17.30;79.03
70271;SHT31;57680;54.292;18.598;2022-10-16T14:17:31;17.34;79.14
70271;SHT31;57680;54.292;18.598;2022-10-16T14:19:59;17.32;79.66
70271;SHT31;57680;54.292;18.598;2022-10-16T14:22:32;17.32;80.27
70271;SHT31;57680;54.292;18.598;2022-10-16T14:24:59;17.38;80.58
70271;SHT31;57680;54.292;18.598;2022-10-16T14:27:35;17.35;81.00
70271;SHT31;57680;54.292;18.598;2022-10-16T14:32:32;17.36;81.61
70271;SHT31;57680;54.292;18.598;2022-10-16T14:34:58;17.34;81.80
70271;SHT31;57680;54.292;18.598;2022-10-16T14:37:26;17.32;81.82
70271;SHT31;57680;54.292;18.598;2022-10-16T14:39:52;17.32;82.03
70271;SHT31;57680;54.292;18.598;2022-10-16T14:42:20;17.24;81.82
70271;SHT31;57680;54.292;18.598;2022-10-16T14:44:50;17.15;82.18
70271;SHT31;57680;54.292;18.598;2022-10-16T14:47:20;17.06;82.31
70271;SHT31;57680;54.292;18.598;2022-10-16T14:49:50;16.91;82.85
70271;SHT31;57680;54.292;18.598;2022-10-16T14:52:16;16.87;83.12
70271;SHT31;57680;54.292;18.598;2022-10-16T14:54:42;16.80;83.38
70271;SHT31;57680;54.292;18.598;2022-10-16T14:57:19;16.73;83.72
70271;SHT31;57680;54.292;18.598;2022-10-16T14:59:46;16.66;84.15
70271;SHT31;57680;54.292;18.598;2022-10-16T15:04:59;16.56;84.68
70271;SHT31;57680;54.292;18.598;2022-10-16T15:07:29;16.49;84.89
70271;SHT31;57680;54.292;18.598;2022-10-16T15:09:55;16.38;85.07
70271;SHT31;57680;54.292;18.598;2022-10-16T15:12:22;16.30;85.56
70271;SHT31;57680;54.292;18.598;2022-10-16T15:14:47;16.18;85.92
70271;SHT31;57680;54.292;18.598;2022-10-16T15:17:13;16.06;86.28
70271;SHT31;57680;54.292;18.598;2022-10-16T15:19:38;15.97;86.59
70271;SHT31;57680;54.292;18.598;2022-10-16T15:22:04;15.90;86.69
70271;SHT31;57680;54.292;18.598;2022-10-16T15:24:30;15.77;87.01
70271;SHT31;57680;54.292;18.598;2022-10-16T15:26:55;15.68;87.31
70271;SHT31;57680;54.292;18.598;2022-10-16T15:29:21;15.60;87.88
70271;SHT31;57680;54.292;18.598;2022-10-16T15:31:46;15.54;88.27
70271;SHT31;57680;54.292;18.598;2022-10-16T15:34:13;15.46;87.95
70271;SHT31;57680;54.292;18.598;2022-10-16T15:36:39;15.40;88.57
70271;SHT31;57680;54.292;18.598;2022-10-16T15:39:16;15.33;88.75
70271;SHT31;57680;54.292;18.598;2022-10-16T15:41:43;15.27;89.23
70271;SHT31;57680;54.292;18.598;2022-10-16T15:44:09;15.26;89.22
70271;SHT31;57680;54.292;18.598;2022-10-16T15:46:35;15.14;89.27
70271;SHT31;57680;54.292;18.598;2022-10-16T15:49:02;15.07;89.55
70271;SHT31;57680;54.292;18.598;2022-10-16T15:51:29;14.99;89.85
70271;SHT31;57680;54.292;18.598;2022-10-16T15:53:57;14.95;90.05
70271;SHT31;57680;54.292;18.598;2022-10-16T15:56:24;14.86;90.46
70271;SHT31;57680;54.292;18.598;2022-10-16T15:58:51;14.78;90.47
70271;SHT31;57680;54.292;18.598;2022-10-16T16:01:17;14.72;91.07
70271;SHT31;57680;54.292;18.598;2022-10-16T16:03:43;14.69;91.31
70271;SHT31;57680;54.292;18.598;2022-10-16T16:06:11;14.61;91.09
70271;SHT31;57680;54.292;18.598;2022-10-16T16:08:38;14.49;91.13
70271;SHT31;57680;54.292;18.598;2022-10-16T16:11:07;14.45;91.90
70271;SHT31;57680;54.292;18.598;2022-10-16T16:13:33;14.37;91.73
70271;SHT31;57680;54.292;18.598;2022-10-16T16:15:59;14.31;92.01
70271;SHT31;57680;54.292;18.598;2022-10-16T16:18:25;14.27;92.27
70271;SHT31;57680;54.292;18.598;2022-10-16T16:20:51;14.21;92.44
70271;SHT31;57680;54.292;18.598;2022-10-16T16:23:17;14.14;92.56
70271;SHT31;57680;54.292;18.598;2022-10-16T16:25:44;14.12;92.81
70271;SHT31;57680;54.292;18.598;2022-10-16T16:28:10;14.13;92.88
70271;SHT31;57680;54.292;18.598;2022-10-16T16:30:40;14.10;92.93
70271;SHT31;57680;54.292;18.598;2022-10-16T16:33:06;14.10;93.27
70271;SHT31;57680;54.292;18.598;2022-10-16T16:35:31;14.07;93.26
70271;SHT31;57680;54.292;18.598;2022-10-16T16:37:57;14.02;93.08
70271;SHT31;57680;54.292;18.598;2022-10-16T16:40:22;13.97;93.66
70271;SHT31;57680;54.292;18.598;2022-10-16T16:42:48;13.97;93.86
70271;SHT31;57680;54.292;18.598;2022-10-16T16:45:14;14.03;93.94
70271;SHT31;57680;54.292;18.598;2022-10-16T16:47:39;14.04;93.57
70271;SHT31;57680;54.292;18.598;2022-10-16T16:50:06;13.97;93.20
70271;SHT31;57680;54.292;18.598;2022-10-16T16:52:33;13.94;93.65
70271;SHT31;57680;54.292;18.598;2022-10-16T16:54:59;13.94;93.83
70271;SHT31;57680;54.292;18.598;2022-10-16T16:57:24;13.87;93.61
70271;SHT31;57680;54.292;18.598;2022-10-16T16:59:50;13.82;93.89
70271;SHT31;57680;54.292;18.598;2022-10-16T17:02:17;13.76;93.84
70271;SHT31;57680;54.292;18.598;2022-10-16T17:04:42;13.70;93.70
70271;SHT31;57680;54.292;18.598;2022-10-16T17:07:08;13.63;94.10
70271;SHT31;57680;54.292;18.598;2022-10-16T17:09:34;13.55;93.69
70271;SHT31;57680;54.292;18.598;2022-10-16T17:11:59;13.43;93.98
70271;SHT31;57680;54.292;18.598;2022-10-16T17:14:25;13.39;94.18
70271;SHT31;57680;54.292;18.598;2022-10-16T17:16:51;13.28;94.25